Schubert, Pennsylvania
Current Conditions -  °F | °C
As of 7:58 PM on Friday 28 Nov 2014 (Local Time) from KMUI Reporting Station
Clear Clear  
Wind Chill: 22°   Ceiling: Unl
Heat Index: 29°   Visibility: 10mi
Dew Point: 14°   Wind: 6mph
Humidity: 54%   Direction: 270°W
Pressure: 30.27"   Gusts: NA
Location:  40.4893°N, 76.2947°W
Report Text: KMUI 290058Z AUTO 27005KT 10SM CLR M02/M10 A3027 RMK AO2 SLP259 T10191102 $
Loading
Personal Weather Stations






























Interactive Weather Map New forecast layout! Learn more

10-Day Weather Forecast

Advertisements
Track Severe Weather on mobile